Eitzen, Minnesota
Current Conditions -  °F | °C
As of 5:35 AM on Friday 24 Oct 2014 (Local Time) from KDEH Reporting Station
Moderate Fog Moderate Fog  
Wind Chill: 50°   Ceiling: 200
Heat Index: 50°   Visibility: 0mi
Dew Point: 50°   Wind: 6mph
Humidity: 100%   Direction: 170°S
Pressure: 30"   Gusts: NA
Location:  43.51°N, 91.46°W
Report Text: KDEH 241035Z AUTO 17005KT M1/4SM FG OVC002 10/10 A3000 RMK AO2
Loading
Personal Weather Stations






























Interactive Weather Map
Tropical Storm Tracking
New forecast layout! Learn more

10-Day Weather Forecast

Advertisements
Track Severe Weather on mobile